Time;durP1;ratioP1;P1;durP2;ratioP2;P2;SDS_P1;SDS_P2;PMS_P1;PMS_P2;Temp;Humidity;BMP_temperature;BMP_pressure;BME280_temperature;BME280_humidity;BME280_pressure;Samples;Min_cycle;Max_cycle;Signal;HPM_P1;HPM_P2
2022/10/27 00:01:32;;;;;;;2.90;2.17;;;16.80;49.70;;;;;;5027408;28;20222;-79
2022/10/27 00:03:57;;;;;;;1.40;1.40;;;16.70;49.20;;;;;;5033051;28;20447;-79
2022/10/27 00:06:23;;;;;;;1.50;1.50;;;16.60;48.90;;;;;;5033756;28;20431;-79
2022/10/27 00:08:50;;;;;;;5.23;2.10;;;16.60;48.90;;;;;;5031082;28;20192;-79
2022/10/27 00:11:15;;;;;;;1.90;1.80;;;16.50;49.60;;;;;;5032499;28;20194;-79
2022/10/27 00:13:41;;;;;;;1.90;1.80;;;16.60;49.70;;;;;;5033568;28;20522;-79
2022/10/27 00:16:14;;;;;;;2.13;1.70;;;16.60;49.40;;;;;;5033742;28;20183;-78
2022/10/27 00:18:40;;;;;;;1.63;1.60;;;16.40;49.10;;;;;;5027339;28;20204;-79
2022/10/27 00:21:09;;;;;;;3.17;1.80;;;16.40;50.10;;;;;;5029809;28;21021;-79
2022/10/27 00:23:35;;;;;;;2.63;2.07;;;16.40;49.60;;;;;;5033475;28;20915;-77
2022/10/27 00:26:01;;;;;;;2.53;2.30;;;16.30;48.90;;;;;;5035078;28;20424;-78
2022/10/27 00:28:27;;;;;;;1.53;1.43;;;16.20;49.20;;;;;;5035161;28;20453;-77
2022/10/27 00:31:01;;;;;;;1.80;1.70;;;16.20;49.30;;;;;;5039929;28;20442;-79
2022/10/27 00:33:27;;;;;;;2.40;1.60;;;16.30;49.10;;;;;;5037395;28;20869;-79
2022/10/27 00:35:53;;;;;;;1.50;1.40;;;16.30;48.80;;;;;;5029391;28;20952;-78
2022/10/27 00:38:21;;;;;;;2.17;1.77;;;16.20;49.10;;;;;;5033926;28;20466;-78
2022/10/27 00:40:47;;;;;;;1.50;1.40;;;16.30;48.30;;;;;;5032356;28;20186;-78
2022/10/27 00:43:30;;;;;;;2.27;1.90;;;16.20;48.10;;;;;;5037158;28;20427;-78
2022/10/27 00:46:18;;;;;;;3.83;2.10;;;16.10;48.70;;;;;;5028212;28;20521;-78
2022/10/27 00:48:44;;;;;;;1.50;1.30;;;16.00;49.10;;;;;;5030834;28;21012;-78
2022/10/27 00:51:14;;;;;;;1.30;1.20;;;15.90;48.60;;;;;;5033480;28;20481;-78
2022/10/27 00:53:40;;;;;;;2.90;1.73;;;15.90;48.20;;;;;;5037539;28;20473;-78
2022/10/27 00:56:06;;;;;;;1.40;1.40;;;15.90;49.00;;;;;;5032575;28;20451;-78
2022/10/27 00:58:32;;;;;;;1.50;1.30;;;16.00;48.80;;;;;;5034384;28;20251;-78
2022/10/27 01:00:59;;;;;;;1.77;1.47;;;15.90;48.60;;;;;;5032554;28;20486;-78
2022/10/27 01:03:25;;;;;;;2.23;1.90;;;15.80;49.10;;;;;;5041574;28;20439;-78
2022/10/27 01:05:51;;;;;;;2.20;2.00;;;15.80;48.70;;;;;;5036574;28;20439;-77
2022/10/27 01:08:17;;;;;;;2.10;1.60;;;15.70;49.10;;;;;;5033728;28;20454;-78
2022/10/27 01:10:43;;;;;;;1.93;1.80;;;15.70;49.20;;;;;;5033126;28;20424;-78
2022/10/27 01:13:09;;;;;;;2.07;1.77;;;15.70;48.70;;;;;;5032729;28;20193;-78
2022/10/27 01:15:47;;;;;;;1.63;1.53;;;15.60;49.40;;;;;;5044965;28;20293;-78
2022/10/27 01:18:31;;;;;;;2.00;1.47;;;15.90;48.60;;;;;;5032532;28;20469;-78
2022/10/27 01:21:26;;;;;;;2.90;1.73;;;15.70;49.10;;;;;;5031805;28;20578;-78
2022/10/27 01:24:03;;;;;;;1.87;1.30;;;15.70;48.90;;;;;;5032429;28;20473;-78
2022/10/27 01:26:47;;;;;;;1.80;1.43;;;15.70;49.00;;;;;;5048808;28;20432;-78
2022/10/27 01:29:42;;;;;;;1.30;1.20;;;15.80;48.90;;;;;;5032116;28;20424;-78
2022/10/27 01:32:35;;;;;;;2.97;1.80;;;15.70;48.90;;;;;;5029855;28;20584;-78
2022/10/27 01:35:50;;;;;;;1.80;1.40;;;15.70;48.90;;;;;;5029579;28;20510;-78
2022/10/27 01:38:36;;;;;;;2.47;1.80;;;15.70;49.70;;;;;;5028048;28;20639;-78
2022/10/27 01:41:15;;;;;;;4.53;1.93;;;15.70;49.00;;;;;;5030395;28;20847;-78
2022/10/27 01:43:42;;;;;;;2.37;2.00;;;15.60;48.90;;;;;;5030023;28;20459;-78
2022/10/27 01:46:10;;;;;;;3.40;1.73;;;15.50;48.70;;;;;;5030698;28;20432;-78
2022/10/27 01:48:36;;;;;;;1.40;1.20;;;15.60;48.80;;;;;;5031553;28;20439;-78
2022/10/27 01:51:05;;;;;;;1.40;1.40;;;15.50;49.40;;;;;;5031394;28;20923;-78
2022/10/27 01:53:35;;;;;;;1.77;1.50;;;15.40;50.50;;;;;;5030936;28;20478;-78
2022/10/27 01:56:03;;;;;;;2.03;1.73;;;15.50;49.30;;;;;;5029283;28;20954;-77
2022/10/27 01:58:47;;;;;;;1.60;1.50;;;15.50;49.70;;;;;;5032300;28;20468;-78
2022/10/27 02:01:18;;;;;;;1.90;1.57;;;15.50;49.00;;;;;;5028955;28;20432;-79
2022/10/27 02:03:51;;;;;;;5.20;2.13;;;15.50;48.70;;;;;;5045011;22;20528;-72
2022/10/27 02:06:56;;;;;;;2.00;1.70;;;15.40;49.30;;;;;;5013479;28;20445;-72
2022/10/27 02:09:27;;;;;;;1.30;1.00;;;15.40;48.70;;;;;;5006953;28;20765;-71
2022/10/27 02:11:56;;;;;;;1.30;1.30;;;15.30;48.60;;;;;;5003776;28;20958;-71
2022/10/27 02:14:23;;;;;;;1.73;1.63;;;15.20;48.70;;;;;;5010638;28;20452;-69
2022/10/27 02:16:52;;;;;;;2.13;1.50;;;15.10;48.70;;;;;;4991525;28;20432;-69
2022/10/27 02:19:34;;;;;;;2.17;1.50;;;15.20;49.00;;;;;;5003353;28;20463;-68
2022/10/27 02:22:01;;;;;;;1.40;1.40;;;15.10;49.00;;;;;;5002449;28;20427;-70
2022/10/27 02:24:27;;;;;;;1.50;1.40;;;15.20;49.10;;;;;;5014212;28;21023;-70
2022/10/27 02:27:31;;;;;;;1.30;1.20;;;15.10;49.00;;;;;;5002055;28;20463;-70
2022/10/27 02:29:59;;;;;;;3.03;1.90;;;15.10;48.90;;;;;;4998350;28;20411;-69
2022/10/27 02:32:27;;;;;;;3.20;2.07;;;15.00;48.80;;;;;;5005781;28;20421;-69
2022/10/27 02:34:53;;;;;;;1.40;1.40;;;14.90;49.10;;;;;;4994134;28;20476;-69
2022/10/27 02:37:40;;;;;;;1.50;1.37;;;14.80;49.70;;;;;;4996807;28;20855;-70
2022/10/27 02:40:07;;;;;;;2.20;1.73;;;14.70;50.90;;;;;;4998054;28;21022;-70
2022/10/27 02:42:32;;;;;;;2.63;1.80;;;14.80;50.50;;;;;;4994846;28;20779;-70
2022/10/27 02:44:58;;;;;;;1.50;1.40;;;14.90;49.80;;;;;;5004025;28;20420;-70
2022/10/27 02:47:24;;;;;;;1.40;1.30;;;14.80;49.10;;;;;;4995493;28;20612;-70
2022/10/27 02:49:49;;;;;;;1.47;1.43;;;14.90;48.70;;;;;;5002663;28;20192;-69
2022/10/27 02:52:15;;;;;;;1.50;1.37;;;14.80;49.40;;;;;;5001517;28;20260;-70
2022/10/27 02:54:46;;;;;;;1.30;1.20;;;14.70;49.10;;;;;;5005610;28;20244;-71
2022/10/27 02:57:16;;;;;;;1.40;1.20;;;14.60;48.90;;;;;;4994629;28;20179;-69
2022/10/27 02:59:41;;;;;;;1.50;1.30;;;14.60;48.80;;;;;;4998491;28;20453;-70
2022/10/27 03:02:07;;;;;;;1.50;1.40;;;14.70;48.50;;;;;;4999149;28;20421;-69
2022/10/27 03:04:33;;;;;;;2.80;1.60;;;14.70;48.10;;;;;;5004883;28;20293;-70
2022/10/27 03:06:58;;;;;;;1.40;1.23;;;14.70;48.20;;;;;;5003862;28;20174;-71
2022/10/27 03:09:24;;;;;;;2.37;1.40;;;14.80;48.00;;;;;;5000491;28;20186;-70
2022/10/27 03:11:50;;;;;;;1.50;1.30;;;14.80;47.90;;;;;;4995393;28;20201;-70
2022/10/27 03:14:15;;;;;;;1.30;1.10;;;14.80;47.10;;;;;;4994790;28;20205;-70
2022/10/27 03:16:41;;;;;;;1.47;1.30;;;14.70;48.00;;;;;;5002030;28;20261;-71
2022/10/27 03:19:06;;;;;;;2.33;1.50;;;14.90;48.10;;;;;;5003151;28;20213;-69
2022/10/27 03:21:32;;;;;;;2.27;1.47;;;14.50;47.60;;;;;;4999568;28;20205;-69
2022/10/27 03:23:58;;;;;;;1.30;1.30;;;14.50;47.70;;;;;;4994423;28;20190;-69
2022/10/27 03:26:23;;;;;;;2.87;1.63;;;14.40;48.10;;;;;;5004197;28;20185;-70
2022/10/27 03:28:49;;;;;;;1.40;1.20;;;14.50;48.00;;;;;;5013205;28;20207;-70
2022/10/27 03:31:14;;;;;;;1.30;1.20;;;14.60;47.10;;;;;;5002395;28;20858;-69
2022/10/27 03:33:40;;;;;;;2.43;1.40;;;14.50;47.10;;;;;;4999782;28;20281;-72
2022/10/27 03:36:06;;;;;;;1.70;1.50;;;14.60;47.10;;;;;;4993330;28;20186;-71
2022/10/27 03:38:31;;;;;;;1.83;1.67;;;14.60;47.10;;;;;;5004227;28;20251;-70
2022/10/27 03:40:57;;;;;;;1.70;1.67;;;14.50;47.00;;;;;;5004997;28;20591;-69
2022/10/27 03:43:22;;;;;;;2.13;1.63;;;14.40;47.20;;;;;;4996651;28;20205;-69
2022/10/27 03:45:48;;;;;;;2.27;1.40;;;14.50;47.20;;;;;;5004433;28;20204;-70
2022/10/27 03:48:14;;;;;;;1.50;1.33;;;14.50;46.90;;;;;;5002661;28;20217;-70
2022/10/27 03:50:45;;;;;;;1.50;1.40;;;14.50;47.00;;;;;;5005030;28;20424;-71
2022/10/27 03:53:11;;;;;;;1.50;1.30;;;14.40;47.50;;;;;;4996909;28;20441;-70
2022/10/27 03:55:36;;;;;;;1.50;1.30;;;14.30;48.50;;;;;;4994548;28;20947;-70
2022/10/27 03:58:02;;;;;;;1.60;1.40;;;14.60;48.00;;;;;;4995003;28;20224;-70
2022/10/27 04:00:30;;;;;;;1.30;1.17;;;14.20;48.20;;;;;;5000872;28;20181;-70
2022/10/27 04:02:56;;;;;;;2.37;1.60;;;14.10;49.90;;;;;;5000085;28;20556;-70
2022/10/27 04:05:22;;;;;;;1.90;1.50;;;13.90;50.20;;;;;;4993115;28;20512;-70
2022/10/27 04:07:48;;;;;;;1.40;1.30;;;14.50;50.00;;;;;;4999863;28;20225;-71
2022/10/27 04:10:13;;;;;;;2.07;1.80;;;14.50;49.90;;;;;;5001743;28;20525;-71
2022/10/27 04:12:51;;;;;;;1.60;1.43;;;14.30;49.20;;;;;;5005185;28;20264;-70
2022/10/27 04:15:17;;;;;;;1.93;1.30;;;14.30;49.40;;;;;;5002996;28;20169;-72
2022/10/27 04:17:43;;;;;;;3.60;1.50;;;14.30;48.90;;;;;;5000630;28;20986;-71
2022/10/27 04:20:09;;;;;;;1.30;1.30;;;14.20;49.00;;;;;;4998965;28;20445;-71
2022/10/27 04:22:34;;;;;;;2.67;1.33;;;14.30;49.70;;;;;;5003686;28;20479;-71
2022/10/27 04:25:00;;;;;;;1.50;1.40;;;14.30;48.40;;;;;;5003183;28;20428;-70
2022/10/27 04:27:25;;;;;;;2.77;1.80;;;14.30;48.40;;;;;;4998260;28;20280;-69
2022/10/27 04:29:51;;;;;;;2.10;1.73;;;14.40;49.50;;;;;;4994359;28;20540;-70
2022/10/27 04:32:17;;;;;;;2.13;1.93;;;14.30;48.70;;;;;;4994342;28;20193;-71
2022/10/27 04:34:42;;;;;;;2.43;1.40;;;14.50;49.40;;;;;;4995124;28;20635;-70
2022/10/27 04:37:08;;;;;;;1.53;1.27;;;14.40;50.20;;;;;;4993978;28;20189;-70
2022/10/27 04:39:33;;;;;;;1.30;1.30;;;13.90;51.20;;;;;;4997672;28;20678;-70
2022/10/27 04:41:59;;;;;;;2.03;1.63;;;14.20;52.50;;;;;;4993723;28;20193;-71
2022/10/27 04:44:24;;;;;;;3.80;2.20;;;13.60;51.90;;;;;;4993218;28;20970;-70
2022/10/27 04:46:50;;;;;;;1.40;1.30;;;13.60;52.60;;;;;;4990222;28;20169;-70
2022/10/27 04:49:16;;;;;;;2.67;1.80;;;13.70;52.00;;;;;;4992913;28;20662;-70
2022/10/27 04:51:41;;;;;;;4.60;1.50;;;13.80;51.50;;;;;;4988507;28;20655;-72
2022/10/27 04:54:07;;;;;;;2.27;1.70;;;14.10;51.70;;;;;;4988882;28;20214;-70
2022/10/27 04:56:32;;;;;;;2.23;1.67;;;14.00;50.80;;;;;;4990770;28;20182;-70
2022/10/27 04:58:58;;;;;;;1.30;1.20;;;14.20;51.10;;;;;;4989779;28;20235;-70
2022/10/27 05:01:24;;;;;;;1.40;1.37;;;14.10;50.30;;;;;;4994357;28;20211;-71
2022/10/27 05:03:49;;;;;;;1.87;1.50;;;14.00;50.40;;;;;;4989160;28;20606;-70
2022/10/27 05:06:15;;;;;;;2.50;1.90;;;14.10;50.20;;;;;;4990338;28;20190;-70
2022/10/27 05:08:41;;;;;;;1.40;1.30;;;14.00;50.30;;;;;;5000947;28;20217;-70
2022/10/27 05:11:06;;;;;;;1.40;1.40;;;14.20;50.10;;;;;;4996078;28;20217;-70
2022/10/27 05:13:32;;;;;;;1.70;1.40;;;14.20;50.30;;;;;;4993208;28;20208;-69
2022/10/27 05:16:02;;;;;;;1.30;1.20;;;14.00;50.10;;;;;;4989360;28;20830;-69
2022/10/27 05:18:27;;;;;;;1.30;1.30;;;14.10;50.20;;;;;;4993348;28;20202;-71
2022/10/27 05:20:53;;;;;;;1.30;1.20;;;14.40;50.40;;;;;;4984698;28;20434;-70
2022/10/27 05:23:19;;;;;;;1.77;1.57;;;14.00;51.20;;;;;;4993428;28;20206;-70
2022/10/27 05:25:48;;;;;;;1.83;1.30;;;14.10;49.80;;;;;;5010433;28;20543;-70
2022/10/27 05:28:14;;;;;;;5.37;2.60;;;14.40;50.40;;;;;;4998480;28;20268;-70
2022/10/27 05:30:40;;;;;;;1.30;1.20;;;14.20;49.60;;;;;;4992213;28;21063;-70
2022/10/27 05:33:05;;;;;;;1.30;1.13;;;14.20;50.50;;;;;;4997646;28;20205;-72
2022/10/27 05:35:31;;;;;;;2.33;1.67;;;14.50;50.40;;;;;;4991787;28;20206;-70
2022/10/27 05:37:57;;;;;;;2.17;1.47;;;14.20;50.20;;;;;;4992425;28;20284;-70
2022/10/27 05:40:22;;;;;;;1.50;1.50;;;14.50;50.30;;;;;;5006866;28;20465;-69
2022/10/27 05:42:53;;;;;;;1.53;1.50;;;14.20;50.20;;;;;;5005462;28;20254;-70
2022/10/27 05:45:20;;;;;;;1.30;1.20;;;14.00;51.50;;;;;;4992542;28;20185;-70
2022/10/27 05:47:46;;;;;;;1.40;1.23;;;14.00;51.40;;;;;;4991714;28;20467;-70
2022/10/27 05:50:12;;;;;;;1.40;1.20;;;14.00;51.40;;;;;;4992061;28;20432;-70
2022/10/27 05:52:38;;;;;;;2.30;1.97;;;14.10;51.70;;;;;;5003915;28;20180;-70
2022/10/27 05:55:03;;;;;;;1.30;1.20;;;14.60;51.60;;;;;;5004159;28;20438;-70
2022/10/27 05:57:29;;;;;;;1.30;1.27;;;14.20;51.20;;;;;;4996958;28;20197;-71
2022/10/27 05:59:55;;;;;;;1.50;1.30;;;14.50;51.40;;;;;;5000083;28;20670;-70
2022/10/27 06:02:20;;;;;;;1.40;1.30;;;14.20;51.00;;;;;;5003320;28;20557;-70
2022/10/27 06:04:46;;;;;;;1.40;1.30;;;14.50;51.20;;;;;;5001702;28;20193;-70
2022/10/27 06:07:11;;;;;;;1.40;1.40;;;14.60;51.50;;;;;;4997403;28;20182;-70
2022/10/27 06:09:37;;;;;;;2.27;1.60;;;14.50;51.20;;;;;;5009222;28;20796;-70
2022/10/27 06:12:03;;;;;;;1.40;1.30;;;14.20;50.80;;;;;;5008593;28;20173;-70
2022/10/27 06:14:28;;;;;;;3.40;1.30;;;14.30;51.30;;;;;;5013787;28;20197;-70
2022/10/27 06:16:54;;;;;;;1999.90;263.40;;;14.30;50.90;;;;;;5008973;28;20193;-70
2022/10/27 06:19:19;;;;;;;692.50;129.37;;;14.20;52.30;;;;;;5000016;28;20581;-70
2022/10/27 06:21:45;;;;;;;214.23;49.37;;;14.20;51.80;;;;;;4996949;28;20277;-70
2022/10/27 06:24:10;;;;;;;185.13;27.60;;;14.30;52.60;;;;;;4997260;28;20198;-73
2022/10/27 06:26:36;;;;;;;197.53;37.67;;;14.10;52.40;;;;;;4996633;28;20221;-80
2022/10/27 06:29:01;;;;;;;245.00;99.00;;;14.40;52.70;;;;;;4980058;28;20209;-77
2022/10/27 06:31:27;;;;;;;196.90;42.07;;;14.40;51.90;;;;;;4989030;28;20178;-78
2022/10/27 06:33:53;;;;;;;200.93;50.10;;;14.30;51.80;;;;;;4995015;28;20201;-78
2022/10/27 06:36:18;;;;;;;223.33;62.40;;;13.70;54.00;;;;;;4995530;28;20546;-79
2022/10/27 06:38:44;;;;;;;278.23;134.33;;;13.70;54.60;;;;;;5001890;28;20251;-78
2022/10/27 06:41:09;;;;;;;299.47;154.47;;;13.60;55.30;;;;;;5000254;28;20179;-71
2022/10/27 06:43:35;;;;;;;154.53;31.80;;;13.40;55.40;;;;;;5005287;28;20201;-71
2022/10/27 06:46:00;;;;;;;2.50;1.10;;;13.50;57.00;;;;;;4999418;28;20182;-74
2022/10/27 06:48:26;;;;;;;2.50;1.10;;;13.70;54.90;;;;;;4995099;28;20182;-71
2022/10/27 06:50:52;;;;;;;2.60;1.20;;;14.00;54.10;;;;;;4996322;28;20205;-71
2022/10/27 06:53:17;;;;;;;2.90;1.33;;;14.10;52.70;;;;;;4992432;28;20252;-71
2022/10/27 06:55:43;;;;;;;2.67;1.10;;;14.00;52.30;;;;;;4992799;28;20589;-72
2022/10/27 06:58:08;;;;;;;3.30;1.80;;;14.20;51.40;;;;;;4993639;28;20204;-70
2022/10/27 07:00:35;;;;;;;30.03;2.80;;;13.60;53.30;;;;;;4993920;28;20178;-70
2022/10/27 07:03:07;;;;;;;1999.90;999.90;;;13.20;56.00;;;;;;4997390;28;20217;-72
2022/10/27 07:05:33;;;;;;;1999.90;999.90;;;13.50;55.20;;;;;;4998957;28;20851;-74
2022/10/27 07:07:59;;;;;;;3.03;1.30;;;13.30;55.40;;;;;;5005718;28;20413;-72
2022/10/27 07:10:24;;;;;;;2.33;1.30;;;14.10;54.30;;;;;;5000518;28;20244;-72
2022/10/27 07:12:55;;;;;;;2.10;1.10;;;13.80;52.80;;;;;;4981580;28;20205;-72
2022/10/27 07:15:22;;;;;;;2.67;1.30;;;14.10;52.40;;;;;;4987174;28;20181;-72
2022/10/27 07:17:47;;;;;;;2.57;1.10;;;14.60;52.10;;;;;;4994117;28;20851;-72
2022/10/27 07:20:13;;;;;;;3.10;1.40;;;14.20;52.50;;;;;;4994198;28;20443;-72
2022/10/27 07:22:40;;;;;;;2.90;1.40;;;14.20;52.80;;;;;;5003215;28;20170;-72
2022/10/27 07:25:06;;;;;;;2.40;1.17;;;14.40;52.70;;;;;;4994402;28;20221;-73
2022/10/27 07:27:32;;;;;;;2.30;1.10;;;14.50;52.30;;;;;;4996904;28;20991;-72
2022/10/27 07:29:58;;;;;;;2.60;1.33;;;14.60;52.40;;;;;;4994173;28;20452;-73
2022/10/27 07:32:23;;;;;;;2.77;1.60;;;14.90;51.60;;;;;;4998765;28;20441;-72
2022/10/27 07:34:49;;;;;;;2.70;1.60;;;14.90;50.80;;;;;;5001311;28;20184;-72
2022/10/27 07:37:15;;;;;;;2.40;1.40;;;14.80;51.90;;;;;;5001593;28;20716;-72
2022/10/27 07:39:40;;;;;;;2.10;1.10;;;15.00;51.20;;;;;;5006775;28;20181;-72
2022/10/27 07:42:06;;;;;;;2.13;1.20;;;15.30;50.50;;;;;;5004661;28;20187;-72
2022/10/27 07:44:31;;;;;;;2.93;1.57;;;15.30;50.50;;;;;;4991406;28;20229;-74
2022/10/27 07:46:57;;;;;;;2.20;1.20;;;15.20;51.50;;;;;;4993319;28;20184;-72
2022/10/27 07:49:22;;;;;;;2.10;1.10;;;14.90;53.20;;;;;;4999583;28;20270;-73
2022/10/27 07:51:48;;;;;;;2.60;1.67;;;14.90;53.50;;;;;;5000931;28;20190;-72
2022/10/27 07:54:13;;;;;;;2.80;1.57;;;14.70;54.50;;;;;;5007562;28;21051;-73
2022/10/27 07:56:39;;;;;;;2.20;1.30;;;14.50;55.10;;;;;;4975930;28;20588;-73
2022/10/27 07:59:05;;;;;;;2.50;1.50;;;14.20;58.90;;;;;;5001516;28;20198;-72
2022/10/27 08:01:30;;;;;;;2.77;1.67;;;14.20;59.40;;;;;;5010429;28;20210;-71
2022/10/27 08:03:56;;;;;;;2.47;1.57;;;13.60;63.20;;;;;;4992596;28;20214;-71
2022/10/27 08:06:22;;;;;;;2.40;1.37;;;13.30;67.00;;;;;;4997932;28;20192;-71
2022/10/27 08:08:48;;;;;;;1.77;1.10;;;13.40;67.10;;;;;;4992216;28;20184;-72
2022/10/27 08:11:13;;;;;;;4.63;2.00;;;14.00;61.70;;;;;;4998369;28;20429;-72
2022/10/27 08:13:39;;;;;;;2.10;1.53;;;14.20;60.80;;;;;;5008409;28;20212;-75
2022/10/27 08:16:05;;;;;;;2.47;1.60;;;14.00;61.70;;;;;;4993710;28;20194;-71
2022/10/27 08:18:30;;;;;;;2.00;1.30;;;14.10;61.30;;;;;;4975440;28;20793;-70
2022/10/27 08:23:24;;;;;;;1.93;1.30;;;13.70;65.30;;;;;;5008135;28;20231;-80
2022/10/27 08:25:51;;;;;;;2.10;1.30;;;13.60;68.40;;;;;;5012712;28;20437;-84
2022/10/27 08:28:17;;;;;;;2.13;1.30;;;13.70;67.40;;;;;;5011813;28;20918;-78
2022/10/27 08:30:43;;;;;;;2.77;1.27;;;13.90;66.50;;;;;;5013394;28;20466;-77
2022/10/27 08:33:09;;;;;;;2.40;1.30;;;14.40;65.70;;;;;;5024327;28;20198;-78
2022/10/27 08:35:35;;;;;;;2.60;1.50;;;14.70;64.10;;;;;;5024240;28;20443;-77
2022/10/27 08:38:06;;;;;;;2.87;1.70;;;14.70;62.10;;;;;;5025930;28;20451;-78
2022/10/27 08:40:43;;;;;;;3.43;1.63;;;15.00;59.20;;;;;;5026499;28;20419;-78
2022/10/27 08:43:27;;;;;;;2.50;1.30;;;15.20;59.30;;;;;;5029709;28;20462;-78
2022/10/27 08:46:00;;;;;;;2.50;1.50;;;15.60;57.30;;;;;;5033148;28;20406;-78
2022/10/27 08:48:27;;;;;;;2.27;1.30;;;15.70;56.30;;;;;;5032332;28;20434;-78
2022/10/27 08:50:53;;;;;;;2.60;1.53;;;15.30;59.70;;;;;;5037164;28;20459;-78
2022/10/27 08:53:32;;;;;;;2.50;1.40;;;14.90;63.70;;;;;;5010891;28;20443;-77
2022/10/27 08:56:07;;;;;;;2.50;1.40;;;14.70;64.40;;;;;;5012214;28;20257;-78
2022/10/27 08:58:42;;;;;;;3.00;1.70;;;15.30;60.00;;;;;;5014851;28;20459;-78
2022/10/27 09:01:29;;;;;;;7.20;1.90;;;15.60;58.00;;;;;;5013718;28;20501;-77
2022/10/27 09:04:22;;;;;;;2.77;1.30;;;15.50;58.00;;;;;;5029572;28;20470;-77
2022/10/27 09:07:21;;;;;;;4.00;1.80;;;15.70;57.80;;;;;;5026218;28;20408;-77
2022/10/27 09:10:05;;;;;;;4.43;2.47;;;15.90;58.50;;;;;;5008937;28;20817;-78
2022/10/27 09:12:30;;;;;;;3.93;1.90;;;16.30;56.00;;;;;;5013921;28;21155;-78
2022/10/27 09:15:18;;;;;;;3.87;2.00;;;16.40;56.00;;;;;;5013886;28;20490;-77
2022/10/27 09:18:16;;;;;;;4.07;1.50;;;16.40;57.10;;;;;;5023359;28;20685;-77
2022/10/27 09:20:48;;;;;;;3.10;1.43;;;16.30;57.80;;;;;;5028133;28;20819;-77
2022/10/27 09:23:29;;;;;;;2.80;1.20;;;16.10;59.10;;;;;;5014813;28;20479;-78
2022/10/27 09:25:57;;;;;;;4.03;1.77;;;16.10;60.30;;;;;;5023309;28;20581;-78
2022/10/27 09:28:44;;;;;;;5.43;2.43;;;16.30;59.60;;;;;;5021898;28;20444;-79
2022/10/27 09:31:33;;;;;;;4.37;2.07;;;16.30;57.30;;;;;;5027466;28;20463;-77
2022/10/27 09:34:22;;;;;;;2.60;1.30;;;16.40;57.90;;;;;;5025660;28;20439;-78
2022/10/27 09:36:48;;;;;;;2.70;1.43;;;16.80;55.40;;;;;;5008099;28;20822;-78
2022/10/27 09:39:14;;;;;;;2.70;1.40;;;17.10;54.20;;;;;;5023806;28;20492;-78
2022/10/27 09:41:40;;;;;;;3.20;1.60;;;17.00;54.10;;;;;;5011984;28;20709;-77
2022/10/27 09:44:19;;;;;;;3.30;1.87;;;16.60;57.10;;;;;;5011016;28;20184;-78
2022/10/27 09:46:54;;;;;;;3.20;1.40;;;17.00;55.10;;;;;;5011662;28;20178;-77
2022/10/27 09:49:31;;;;;;;2.80;1.70;;;17.50;53.50;;;;;;5010300;28;20908;-78
2022/10/27 09:52:05;;;;;;;3.13;1.80;;;17.60;52.90;;;;;;5010991;28;20454;-78
2022/10/27 09:54:37;;;;;;;3.10;1.87;;;17.80;52.60;;;;;;5007520;28;20428;-78
2022/10/27 09:57:15;;;;;;;2.80;1.60;;;18.00;51.80;;;;;;5010617;28;20449;-79
2022/10/27 09:59:41;;;;;;;2.90;1.60;;;17.80;50.80;;;;;;5027460;28;20922;-79
2022/10/27 10:02:31;;;;;;;2.67;1.37;;;17.90;51.00;;;;;;5011172;28;20459;-79
2022/10/27 10:04:58;;;;;;;4.40;2.07;;;18.70;49.40;;;;;;5009616;28;20441;-79
2022/10/27 10:07:33;;;;;;;2.40;1.20;;;18.70;47.90;;;;;;5014164;28;20471;-78
2022/10/27 10:10:19;;;;;;;4.20;2.00;;;18.70;47.70;;;;;;5014781;28;20450;-78
2022/10/27 10:12:45;;;;;;;2.77;1.43;;;19.10;47.10;;;;;;5008705;28;20465;-77
2022/10/27 10:15:10;;;;;;;2.80;1.40;;;19.90;44.00;;;;;;5011502;28;20792;-78
2022/10/27 10:17:39;;;;;;;4.83;1.50;;;20.00;43.90;;;;;;5012684;28;20185;-78
2022/10/27 10:20:07;;;;;;;3.00;1.70;;;19.30;45.40;;;;;;5012550;28;20199;-78
2022/10/27 10:22:34;;;;;;;3.73;1.83;;;19.50;45.80;;;;;;5012933;28;20457;-77
2022/10/27 10:25:24;;;;;;;3.00;1.47;;;19.50;45.30;;;;;;5015962;28;20439;-77
2022/10/27 10:27:58;;;;;;;2.67;1.27;;;19.80;43.60;;;;;;5008626;28;20427;-78
2022/10/27 10:30:23;;;;;;;3.00;1.50;;;19.70;44.40;;;;;;5013277;28;20442;-79
2022/10/27 10:32:52;;;;;;;3.90;2.13;;;20.20;43.80;;;;;;5013870;28;21153;-78
2022/10/27 10:35:42;;;;;;;2.70;1.30;;;20.50;42.10;;;;;;5013573;28;20198;-78
2022/10/27 10:38:27;;;;;;;3.00;1.60;;;21.20;40.70;;;;;;5012573;28;20967;-78
2022/10/27 10:41:13;;;;;;;3.10;1.33;;;21.70;38.70;;;;;;5008288;28;20414;-78
2022/10/27 10:43:39;;;;;;;3.50;1.60;;;21.80;37.10;;;;;;5015663;28;20426;-78
2022/10/27 10:46:15;;;;;;;3.20;1.50;;;22.10;36.60;;;;;;5020941;28;20918;-79
2022/10/27 10:48:46;;;;;;;3.00;1.30;;;22.00;38.00;;;;;;5036706;28;21280;-78
2022/10/27 10:51:22;;;;;;;3.00;1.40;;;21.90;38.00;;;;;;5019853;28;20524;-78
2022/10/27 10:53:50;;;;;;;7.10;1.40;;;21.70;37.30;;;;;;5019434;28;20435;-78
2022/10/27 10:56:31;;;;;;;3.10;1.60;;;22.20;36.80;;;;;;5023731;28;20825;-79
2022/10/27 10:59:08;;;;;;;2.67;1.20;;;21.90;37.40;;;;;;5017218;28;20481;-78
2022/10/27 11:01:57;;;;;;;2.80;1.40;;;22.00;37.60;;;;;;5024857;28;20498;-78
2022/10/27 11:04:27;;;;;;;2.70;1.60;;;22.30;37.10;;;;;;5022854;28;20497;-79
2022/10/27 11:07:14;;;;;;;2.90;1.50;;;23.00;36.20;;;;;;5024925;28;20427;-79
2022/10/27 11:10:03;;;;;;;4.00;1.53;;;23.10;35.30;;;;;;5017806;28;21000;-78
2022/10/27 11:12:32;;;;;;;2.40;1.30;;;23.10;34.20;;;;;;5017819;28;20446;-78
2022/10/27 11:15:04;;;;;;;2.50;1.23;;;23.50;34.20;;;;;;5016934;28;20470;-78
2022/10/27 11:17:33;;;;;;;3.50;1.60;;;23.40;34.30;;;;;;5022966;28;20456;-79
2022/10/27 11:19:59;;;;;;;2.63;1.50;;;23.90;34.10;;;;;;5021908;28;20454;-78
2022/10/27 11:22:26;;;;;;;2.67;1.70;;;23.30;34.10;;;;;;5017204;28;21080;-78
2022/10/27 11:25:19;;;;;;;2.17;1.30;;;23.60;32.90;;;;;;5032848;28;20806;-78
2022/10/27 11:28:03;;;;;;;2.83;1.70;;;23.00;34.00;;;;;;5020667;28;20442;-79
2022/10/27 11:30:29;;;;;;;2.13;1.47;;;23.50;33.40;;;;;;5030215;28;20715;-79
2022/10/27 11:33:22;;;;;;;2.83;1.40;;;24.20;32.70;;;;;;5018056;28;20444;-79
2022/10/27 11:36:01;;;;;;;2.40;1.50;;;24.40;31.50;;;;;;5018804;28;20436;-78
2022/10/27 11:38:39;;;;;;;2.70;1.80;;;24.50;32.50;;;;;;5028046;28;20980;-80
2022/10/27 11:41:18;;;;;;;2.10;1.30;;;24.60;32.00;;;;;;5026061;28;20958;-79
2022/10/27 11:44:08;;;;;;;2.50;1.70;;;24.00;32.70;;;;;;5016713;28;20427;-79
2022/10/27 11:46:36;;;;;;;2.47;1.30;;;23.70;33.40;;;;;;5018304;28;20475;-79
2022/10/27 11:49:20;;;;;;;1.80;1.23;;;24.10;32.70;;;;;;5026598;28;20477;-79
2022/10/27 11:51:54;;;;;;;2.93;1.50;;;23.60;33.10;;;;;;5016863;28;20448;-78
2022/10/27 11:54:20;;;;;;;2.57;1.47;;;23.50;33.50;;;;;;5016510;28;20518;-79
2022/10/27 11:57:09;;;;;;;2.00;1.30;;;23.60;33.30;;;;;;5016162;28;20428;-79
2022/10/27 11:59:50;;;;;;;6.80;1.90;;;24.10;32.60;;;;;;5022544;28;20458;-80
2022/10/27 12:02:22;;;;;;;3.00;1.50;;;24.10;32.80;;;;;;5009508;28;20526;-79
2022/10/27 12:04:54;;;;;;;5.60;1.60;;;24.60;31.90;;;;;;5021630;28;20558;-79
2022/10/27 12:07:42;;;;;;;2.67;1.60;;;24.70;31.90;;;;;;5022095;28;20921;-80
2022/10/27 12:10:30;;;;;;;2.17;1.47;;;25.20;30.40;;;;;;5014862;28;20459;-78
2022/10/27 12:13:04;;;;;;;1.97;1.43;;;24.50;31.40;;;;;;5014608;28;20466;-79
2022/10/27 12:15:43;;;;;;;2.03;1.40;;;24.50;31.40;;;;;;5019705;28;20465;-79
2022/10/27 12:18:21;;;;;;;1.90;1.40;;;24.50;32.30;;;;;;5017118;28;20523;-79
2022/10/27 12:21:12;;;;;;;2.10;1.50;;;24.20;32.30;;;;;;5015353;28;20510;-79
2022/10/27 12:23:52;;;;;;;9.70;1.80;;;24.20;32.40;;;;;;5011265;28;20446;-79
2022/10/27 12:26:25;;;;;;;2.30;1.60;;;24.70;31.30;;;;;;5029108;28;20415;-79
2022/10/27 12:28:52;;;;;;;3.73;1.80;;;24.40;31.30;;;;;;5019544;28;20416;-79
2022/10/27 12:31:24;;;;;;;1.90;1.50;;;24.50;32.20;;;;;;5014647;28;20459;-80
2022/10/27 12:33:56;;;;;;;2.90;1.73;;;24.70;30.90;;;;;;5032199;28;20442;-80
2022/10/27 12:36:34;;;;;;;1.63;1.20;;;24.90;31.90;;;;;;5021796;28;20432;-79
2022/10/27 12:39:23;;;;;;;2.40;1.70;;;24.90;30.80;;;;;;5018187;28;20923;-79
2022/10/27 12:42:13;;;;;;;2.30;1.43;;;24.90;30.80;;;;;;5016332;28;20439;-78
2022/10/27 12:45:09;;;;;;;2.07;1.30;;;25.20;30.10;;;;;;5016672;28;20439;-78
2022/10/27 12:47:50;;;;;;;3.03;1.70;;;25.20;30.40;;;;;;5010296;28;20456;-78
2022/10/27 12:50:57;;;;;;;1.90;1.40;;;25.10;30.30;;;;;;5013902;28;20436;-79
2022/10/27 12:53:25;;;;;;;1.80;1.20;;;25.40;30.10;;;;;;4997467;28;20433;-80
2022/10/27 12:55:57;;;;;;;2.67;1.70;;;25.50;30.20;;;;;;5010475;28;21072;-78
2022/10/27 12:59:01;;;;;;;2.73;1.90;;;25.40;30.00;;;;;;5032785;28;20473;-78
2022/10/27 13:01:38;;;;;;;2.60;1.30;;;25.50;29.80;;;;;;4998625;28;20494;-79
2022/10/27 13:04:15;;;;;;;2.13;1.50;;;26.10;29.90;;;;;;5014936;28;20427;-79
2022/10/27 13:07:17;;;;;;;2.10;1.43;;;26.20;29.60;;;;;;5013469;28;21242;-80
2022/10/27 13:10:40;;;;;;;1.70;1.20;;;26.20;29.40;;;;;;5024453;28;20836;-80